Prag, Češka

01:39 AM CEST on Rujan 03, 2014 (GMT +0200)
Jenec | Change Station
CLOSE
Current Station
Osobna meteo-postaja
Location: Jenec, Stredocesky Kraj
Visina: 1211 ft
Nearby Weather Stations

Elev 1211 ft 50.09 °N, 14.21 °E | Updated 9 minutes ago

Light Drizzle
Slaba rominjajuća kiša
52.3 °F
Feels Like 52.3 °F
S
1.6
Vjetar Varijabla smjera vjetra Vjetar from Sjever
Gusts 1.6 mph

Danas
High -- | Low -- °F
--% Chance of Precip.
Jučer
High -- | Low -- °F
Precip. -- u
6:20 AM 7:43 PM
Prva četvrtina, 56% visible
Pritisak 30.18 u
Vidljivost 5.0 milja
Oblaci Raštrkani oblaci 200 ft
Potpuno oblačno 300 ft
Točka rose 52 °F
Vlažnost 98%
Kiša 0.00 u
Visina snijega Not available.
UV 0 od 12
Pollen Not available.
Kvalitet zraka Not available.
Flu Activity Not available.
METAR LKPR 022330Z 36006KT 8000 -DZ SCT002 OVC003 12/11 Q1022 BECMG 7000 BKN002

More Conditions Fewer Conditions

Pritisak 30.18 u
Vidljivost 5.0 milja
Oblaci Raštrkani oblaci 200 ft
Potpuno oblačno 300 ft
Točka rose 52 °F
Vlažnost 98%
Kiša 0.00 u
Visina snijega Not available.
UV 0 od 12
Pollen Not available.
Kvalitet zraka Not available.
Flu Activity Not available.
METAR LKPR 022330Z 36006KT 8000 -DZ SCT002 OVC003 12/11 Q1022 BECMG 7000 BKN002

More Conditions Fewer Conditions

10-Day Weather Forecast

Almanac

Astronomija

Sep. 03, 2014 Izlazak Zalazak
Trenutno vrijeme 6:20 AM CEST 7:43 PM CEST
Civilni sumrak 5:46 AM CEST 8:16 PM CEST
Nautički sumrak 5:05 AM CEST 8:57 PM CEST
Astronomski sumrak 4:21 AM CEST 9:41 PM CEST
Moon 3:27 PM CEST (9/3) Mjesec ne zalazi
Duljina trajanja vidljive svjetlosti 14h 29m
Duljina dana
13h 22m
Tomorrow will be 3m 39s shorter.
Prva četvrtina, 56% of the Moon is Illuminated
Sep 2
Prva četvrtina
Sep 8
Pun mjesec
Sep 15
Zadnja četvrt
Sep 24
New
Oct 1
Prva četvrtina

Yesterday's Extremes

Country Highs Country Lows

Community

WunderPhotos

Upload Photos

1,749,799 photos uploaded!

Nearby

Kvalitet zraka

Not available.

Visina snijega

Not available.

Earthquake Activity

Grad Distance Mag. Time & Date
No recent earthquake activity has been reported nearby.
Minimum magnitude displayed is 2.5.

Coastal Water Temperatures

Mjesto Temperatura
No Stations Reporting

Nearby Weather Stations